Time;durP1;ratioP1;P1;durP2;ratioP2;P2;SDS_P1;SDS_P2;PMS_P1;PMS_P2;Temp;Humidity;BMP_temperature;BMP_pressure;BME280_temperature;BME280_humidity;BME280_pressure;Samples;Min_cycle;Max_cycle;Signal;HPM_P1;HPM_P2
2020/12/23 00:01:46;;;;;;;15.50;8.90;;;;;;;-2.48;94.79;100657.94;1764586;79;21102;-76
2020/12/23 00:04:13;;;;;;;17.40;9.83;;;;;;;-2.45;94.64;100654.69;1768777;79;21118;-76
2020/12/23 00:06:41;;;;;;;19.47;9.93;;;;;;;-2.43;94.79;100667.01;1819241;79;21079;-76
2020/12/23 00:09:09;;;;;;;20.63;10.47;;;;;;;-2.43;94.76;100659.00;1808692;79;21118;-77
2020/12/23 00:11:36;;;;;;;18.27;10.67;;;;;;;-2.41;94.93;100654.89;1797961;79;21135;-76
2020/12/23 00:14:04;;;;;;;15.13;9.60;;;;;;;-2.39;95.09;100651.14;1808149;79;21146;-76
2020/12/23 00:16:32;;;;;;;18.70;10.07;;;;;;;-2.40;94.89;100648.16;1791071;79;21114;-77
2020/12/23 00:18:59;;;;;;;18.50;9.73;;;;;;;-2.42;95.16;100637.96;1789041;79;21123;-77
2020/12/23 00:21:27;;;;;;;19.23;10.67;;;;;;;-2.42;95.41;100654.43;1774867;79;21130;-77
2020/12/23 00:23:55;;;;;;;17.73;10.40;;;;;;;-2.41;94.85;100649.83;1803656;79;21124;-77
2020/12/23 00:26:22;;;;;;;12.30;6.57;;;;;;;-2.40;94.71;100655.75;1816413;78;21129;-77
2020/12/23 00:28:50;;;;;;;11.03;7.23;;;;;;;-2.41;94.11;100647.69;1783583;80;21150;-76
2020/12/23 00:31:17;;;;;;;15.63;9.63;;;;;;;-2.45;93.54;100631.89;1818275;79;21109;-77
2020/12/23 00:33:45;;;;;;;14.77;8.77;;;;;;;-2.43;93.56;100630.27;1789018;79;21130;-77
2020/12/23 00:36:14;;;;;;;19.47;8.57;;;;;;;-2.40;93.65;100631.28;1762533;80;21110;-77
2020/12/23 00:38:42;;;;;;;15.43;8.17;;;;;;;-2.39;93.46;100628.34;1799025;79;21169;-79
2020/12/23 00:41:11;;;;;;;12.10;7.30;;;;;;;-2.39;93.95;100636.84;1769374;80;21122;-76
2020/12/23 00:43:39;;;;;;;16.33;7.40;;;;;;;-2.43;93.28;100623.94;1779510;80;21532;-77
2020/12/23 00:46:11;;;;;;;11.97;7.07;;;;;;;-2.44;93.48;100634.48;1808882;79;21121;-77
2020/12/23 00:48:40;;;;;;;13.03;7.77;;;;;;;-2.45;93.26;100626.82;1815251;78;21232;-76
2020/12/23 00:51:16;;;;;;;12.13;6.53;;;;;;;-2.50;93.41;100619.39;1804019;79;21126;-77
2020/12/23 00:53:45;;;;;;;15.87;7.57;;;;;;;-2.52;93.50;100616.77;1811367;79;21090;-77
2020/12/23 00:56:12;;;;;;;12.67;6.17;;;;;;;-2.54;93.35;100599.37;1750290;82;21117;-76
2020/12/23 00:58:40;;;;;;;12.37;6.87;;;;;;;-2.54;92.86;100602.32;1774766;79;21138;-77
2020/12/23 01:01:07;;;;;;;11.10;6.10;;;;;;;-2.53;92.62;100599.84;1798295;79;21126;-76
2020/12/23 01:03:37;;;;;;;10.67;5.60;;;;;;;-2.52;92.18;100606.63;1807164;79;21113;-76
2020/12/23 01:06:14;;;;;;;15.27;7.23;;;;;;;-2.54;92.02;100590.92;1788605;79;21232;-76
2020/12/23 01:08:43;;;;;;;12.87;8.27;;;;;;;-2.55;92.25;100584.99;1812990;79;21110;-76
2020/12/23 01:11:12;;;;;;;14.27;7.43;;;;;;;-2.56;92.19;100591.23;1808999;79;21246;-76
2020/12/23 01:13:40;;;;;;;13.33;7.37;;;;;;;-2.57;92.19;100597.97;1802686;79;21130;-76
2020/12/23 01:16:08;;;;;;;13.97;7.80;;;;;;;-2.59;91.47;100587.75;1759730;79;21114;-76
2020/12/23 01:18:36;;;;;;;15.27;8.53;;;;;;;-2.59;91.87;100583.95;1780596;79;21229;-77
2020/12/23 01:21:04;;;;;;;12.30;7.63;;;;;;;-2.56;92.51;100570.97;1780484;79;21114;-76
2020/12/23 01:23:32;;;;;;;9.53;6.30;;;;;;;-2.53;91.91;100555.52;1744667;79;21107;-76
2020/12/23 01:25:59;;;;;;;14.37;8.63;;;;;;;-2.51;92.03;100557.73;1767953;80;21135;-76
2020/12/23 01:28:27;;;;;;;13.37;7.20;;;;;;;-2.49;92.05;100552.72;1788576;79;21095;-77
2020/12/23 01:30:54;;;;;;;15.43;8.53;;;;;;;-2.49;91.64;100549.78;1775017;79;21083;-77
2020/12/23 01:33:22;;;;;;;12.63;7.37;;;;;;;-2.45;92.02;100543.22;1741288;82;21138;-77
2020/12/23 01:35:49;;;;;;;14.80;8.10;;;;;;;-2.43;91.96;100546.27;1796681;79;21122;-76
2020/12/23 01:38:17;;;;;;;16.20;9.87;;;;;;;-2.39;92.19;100543.47;1759747;81;21135;-77
2020/12/23 01:40:44;;;;;;;13.80;7.87;;;;;;;-2.37;92.27;100541.48;1809055;79;21082;-77
2020/12/23 01:43:12;;;;;;;14.63;7.97;;;;;;;-2.33;92.55;100537.81;1788005;79;21086;-77
2020/12/23 01:45:40;;;;;;;15.87;9.23;;;;;;;-2.31;92.59;100540.89;1785319;79;21147;-77
2020/12/23 01:48:17;;;;;;;15.03;9.50;;;;;;;-2.33;92.46;100531.08;1774491;79;21115;-77
2020/12/23 01:50:45;;;;;;;19.83;11.27;;;;;;;-2.32;92.64;100531.94;1777409;79;21099;-76
2020/12/23 01:53:16;;;;;;;17.03;10.37;;;;;;;-2.30;92.82;100517.69;1776390;79;21540;-76
2020/12/23 01:55:45;;;;;;;16.13;9.80;;;;;;;-2.29;92.62;100520.30;1778158;79;21111;-76
2020/12/23 01:58:14;;;;;;;17.53;9.53;;;;;;;-2.25;92.16;100514.97;1788217;79;21107;-76
2020/12/23 02:00:42;;;;;;;15.20;8.97;;;;;;;-2.24;91.90;100531.49;1812235;79;21138;-76
2020/12/23 02:03:15;;;;;;;15.87;10.07;;;;;;;-2.22;91.81;100510.90;1801781;79;21374;-77
2020/12/23 02:05:42;;;;;;;18.40;11.33;;;;;;;-2.22;91.89;100496.09;1797168;79;21142;-77
2020/12/23 02:08:10;;;;;;;15.70;9.33;;;;;;;-2.17;91.84;100496.74;1740095;81;21155;-77
2020/12/23 02:10:40;;;;;;;20.77;10.33;;;;;;;-2.17;91.57;100489.55;1783079;79;21276;-77
2020/12/23 02:13:09;;;;;;;15.73;9.87;;;;;;;-2.16;91.57;100483.29;1743141;81;21155;-77
2020/12/23 02:15:37;;;;;;;15.70;10.18;;;;;;;-2.17;91.68;100494.20;1804887;79;21122;-78
2020/12/23 02:18:05;;;;;;;16.40;10.90;;;;;;;-2.17;91.93;100494.61;1804391;79;21522;-77
2020/12/23 02:20:32;;;;;;;16.87;10.13;;;;;;;-2.17;91.93;100476.88;1793305;79;21111;-76
2020/12/23 02:23:00;;;;;;;18.43;9.50;;;;;;;-2.16;92.02;100479.48;1800178;79;21150;-77
2020/12/23 02:25:27;;;;;;;17.70;9.97;;;;;;;-2.17;92.00;100468.00;1798937;79;21101;-76
2020/12/23 02:27:55;;;;;;;20.00;9.73;;;;;;;-2.17;92.20;100465.47;1790821;79;21107;-76
2020/12/23 02:30:22;;;;;;;19.17;11.87;;;;;;;-2.17;92.72;100469.27;1783028;79;21142;-76
2020/12/23 02:32:50;;;;;;;18.60;11.17;;;;;;;-2.16;92.49;100460.85;1807883;79;21146;-76
2020/12/23 02:35:18;;;;;;;17.47;11.47;;;;;;;-2.16;92.68;100465.92;1796005;79;21565;-77
2020/12/23 02:37:46;;;;;;;17.73;10.43;;;;;;;-2.13;92.71;100462.25;1786468;79;21088;-77
2020/12/23 02:40:13;;;;;;;18.17;9.87;;;;;;;-2.13;92.59;100463.52;1773215;80;21111;-76
2020/12/23 02:42:43;;;;;;;18.63;9.10;;;;;;;-2.15;92.88;100462.61;1781230;79;21110;-76
2020/12/23 02:45:10;;;;;;;19.20;10.07;;;;;;;-2.16;92.84;100451.61;1789304;79;21134;-76
2020/12/23 02:47:38;;;;;;;20.60;11.43;;;;;;;-2.14;93.17;100441.52;1787784;79;21115;-77
2020/12/23 02:50:06;;;;;;;19.43;9.80;;;;;;;-2.11;93.17;100453.06;1781074;79;21273;-77
2020/12/23 02:52:34;;;;;;;18.53;10.73;;;;;;;-2.12;92.99;100457.27;1743590;82;21137;-77
2020/12/23 02:55:02;;;;;;;19.13;11.27;;;;;;;-2.13;93.03;100432.73;1812550;79;21103;-76
2020/12/23 02:57:30;;;;;;;21.13;12.83;;;;;;;-2.10;92.82;100434.50;1782328;79;21130;-77
2020/12/23 02:59:57;;;;;;;19.77;12.67;;;;;;;-2.12;92.67;100448.39;1779882;79;21079;-77
2020/12/23 03:02:25;;;;;;;18.93;12.50;;;;;;;-2.11;92.73;100434.05;1801837;79;21566;-77
2020/12/23 03:04:54;;;;;;;17.60;9.93;;;;;;;-2.12;92.26;100437.39;1790062;79;21099;-77
2020/12/23 03:07:21;;;;;;;20.23;12.70;;;;;;;-2.11;92.25;100439.12;1787288;79;21101;-76
2020/12/23 03:09:49;;;;;;;16.17;9.93;;;;;;;-2.10;92.25;100445.91;1780520;79;21114;-75
2020/12/23 03:12:16;;;;;;;15.60;11.07;;;;;;;-2.09;92.00;100426.13;1774211;79;21143;-77
2020/12/23 03:14:44;;;;;;;18.80;12.10;;;;;;;-2.12;92.31;100414.58;1790642;79;21099;-75
2020/12/23 03:17:11;;;;;;;24.03;13.83;;;;;;;-2.12;92.42;100412.91;1788524;80;21067;-77
2020/12/23 03:19:41;;;;;;;21.30;11.50;;;;;;;-2.12;92.31;100407.84;1769215;80;21110;-77
2020/12/23 03:22:09;;;;;;;19.20;10.23;;;;;;;-2.12;92.08;100420.52;1788788;80;21106;-77
2020/12/23 03:24:39;;;;;;;21.73;12.53;;;;;;;-2.14;91.97;100414.91;1788285;80;21525;-76
2020/12/23 03:27:07;;;;;;;22.43;12.67;;;;;;;-2.14;92.51;100408.16;1772269;80;21134;-77
2020/12/23 03:29:34;;;;;;;19.60;10.90;;;;;;;-2.09;92.40;100418.52;1780242;80;21126;-77
2020/12/23 03:32:01;;;;;;;22.57;11.83;;;;;;;-2.08;92.36;100413.91;1752417;79;21142;-77
2020/12/23 03:34:29;;;;;;;23.40;12.90;;;;;;;-2.07;92.26;100413.50;1778137;80;21494;-77
2020/12/23 03:36:56;;;;;;;21.97;12.37;;;;;;;-2.05;92.25;100402.63;1778495;80;21079;-77
2020/12/23 03:39:24;;;;;;;21.60;11.13;;;;;;;-2.03;92.35;100401.41;1775088;80;21122;-76
2020/12/23 03:41:51;;;;;;;21.10;12.17;;;;;;;-2.00;92.49;100398.59;1788933;80;21542;-77
2020/12/23 03:44:19;;;;;;;20.80;11.70;;;;;;;-1.97;92.75;100403.79;1788921;79;21099;-77
2020/12/23 03:46:46;;;;;;;21.33;11.30;;;;;;;-1.94;92.88;100395.45;1761098;79;21083;-77
2020/12/23 03:49:14;;;;;;;19.13;10.23;;;;;;;-1.94;92.77;100396.72;1788676;79;21122;-77
2020/12/23 03:51:42;;;;;;;24.00;12.13;;;;;;;-1.95;92.88;100403.88;1782316;79;21493;-77
2020/12/23 03:54:10;;;;;;;22.97;12.57;;;;;;;-1.97;93.23;100405.06;1787265;80;21553;-76
2020/12/23 03:56:38;;;;;;;21.17;11.73;;;;;;;-1.98;93.32;100394.87;1770828;80;21103;-77
2020/12/23 03:59:05;;;;;;;19.93;12.67;;;;;;;-2.00;93.60;100395.20;1785255;80;21086;-77
2020/12/23 04:01:33;;;;;;;23.17;12.87;;;;;;;-2.01;94.14;100401.94;1788653;80;21123;-75
2020/12/23 04:04:00;;;;;;;27.77;14.33;;;;;;;-1.97;93.97;100392.38;1788650;79;21541;-77
2020/12/23 04:06:28;;;;;;;24.73;13.40;;;;;;;-2.01;93.97;100390.94;1775546;79;21090;-76
2020/12/23 04:08:56;;;;;;;20.50;10.67;;;;;;;-2.03;93.86;100385.78;1757781;80;21141;-77
2020/12/23 04:11:23;;;;;;;23.03;12.43;;;;;;;-2.05;94.48;100386.14;1788607;79;21074;-77
2020/12/23 04:13:51;;;;;;;26.10;12.90;;;;;;;-2.03;94.35;100385.78;1787024;80;21143;-78
2020/12/23 04:16:18;;;;;;;26.30;13.50;;;;;;;-2.00;94.35;100384.65;1785935;79;21140;-75
2020/12/23 04:18:46;;;;;;;22.07;12.63;;;;;;;-1.95;93.81;100393.73;1805497;79;21106;-77
2020/12/23 04:21:14;;;;;;;26.83;13.37;;;;;;;-1.92;93.77;100392.59;1806057;79;21522;-78
2020/12/23 04:23:41;;;;;;;16.53;9.97;;;;;;;-1.90;93.74;100384.62;1809577;79;21090;-77
2020/12/23 04:26:08;;;;;;;20.70;11.43;;;;;;;-1.86;93.31;100384.34;1792381;79;21142;-77
2020/12/23 04:28:36;;;;;;;23.37;12.20;;;;;;;-1.89;93.04;100386.37;1809462;79;21114;-76
2020/12/23 04:31:04;;;;;;;25.17;13.83;;;;;;;-1.89;93.18;100386.37;1808685;79;21455;-77
2020/12/23 04:33:32;;;;;;;21.27;11.60;;;;;;;-1.93;93.12;100372.71;1785752;79;21106;-77
2020/12/23 04:36:01;;;;;;;21.60;11.33;;;;;;;-1.94;93.21;100383.63;1809659;79;21533;-76
2020/12/23 04:38:28;;;;;;;32.03;13.00;;;;;;;-2.00;93.57;100375.78;1800274;79;21529;-76
2020/12/23 04:40:56;;;;;;;27.80;12.60;;;;;;;-2.01;93.67;100374.05;1800762;79;21099;-77
2020/12/23 04:43:24;;;;;;;26.33;13.47;;;;;;;-1.99;93.66;100376.67;1743112;81;21515;-77
2020/12/23 04:45:52;;;;;;;27.13;13.13;;;;;;;-2.01;93.76;100372.78;1774495;80;21090;-77
2020/12/23 04:48:24;;;;;;;24.13;12.83;;;;;;;-1.98;93.81;100371.64;1753146;79;21119;-76
2020/12/23 04:50:55;;;;;;;22.80;11.03;;;;;;;-1.97;93.79;100367.44;1781280;79;21120;-77
2020/12/23 04:53:23;;;;;;;23.43;13.87;;;;;;;-2.00;93.60;100371.11;1785305;79;21261;-75
2020/12/23 04:55:51;;;;;;;27.57;14.27;;;;;;;-2.01;93.55;100374.05;1780179;79;21110;-76
2020/12/23 04:58:18;;;;;;;19.87;10.03;;;;;;;-2.03;93.71;100373.11;1795689;79;21143;-77
2020/12/23 05:00:46;;;;;;;25.47;13.37;;;;;;;-2.02;93.52;100385.01;1806108;79;21171;-77
2020/12/23 05:03:13;;;;;;;22.90;12.90;;;;;;;-2.01;93.63;100380.39;1780393;79;21099;-75
2020/12/23 05:05:41;;;;;;;25.50;13.50;;;;;;;-2.00;93.59;100382.52;1805701;79;21280;-77
2020/12/23 05:08:09;;;;;;;21.70;11.13;;;;;;;-1.97;93.42;100376.31;1752214;81;21489;-77
2020/12/23 05:10:38;;;;;;;22.07;12.43;;;;;;;-1.96;93.51;100379.33;1794234;79;21152;-77
2020/12/23 05:13:05;;;;;;;24.47;10.83;;;;;;;-1.97;93.55;100373.37;1785075;79;21080;-76
2020/12/23 05:15:34;;;;;;;25.27;12.00;;;;;;;-1.96;93.71;100376.80;1806779;78;21534;-77
2020/12/23 05:18:03;;;;;;;25.10;14.13;;;;;;;-1.97;94.02;100371.23;1739638;81;21122;-77
2020/12/23 05:20:31;;;;;;;26.37;12.27;;;;;;;-1.97;94.03;100377.17;1716746;82;21379;-77
2020/12/23 05:22:58;;;;;;;22.83;13.47;;;;;;;-1.95;94.06;100372.18;1677284;81;21138;-77
2020/12/23 05:25:27;;;;;;;21.60;13.03;;;;;;;-1.94;94.23;100367.16;1723335;81;21249;-76
2020/12/23 05:27:54;;;;;;;23.33;13.20;;;;;;;-1.93;94.24;100370.17;1739002;80;21130;-76
2020/12/23 05:30:22;;;;;;;27.17;15.03;;;;;;;-1.91;94.34;100375.30;1727926;81;21108;-75
2020/12/23 05:32:50;;;;;;;25.43;13.40;;;;;;;-1.93;94.08;100370.55;1814166;79;21162;-76
2020/12/23 05:35:18;;;;;;;23.80;14.87;;;;;;;-1.96;94.52;100393.28;1760149;79;21134;-77
2020/12/23 05:37:45;;;;;;;24.67;14.60;;;;;;;-1.98;94.78;100365.30;1809338;79;21498;-77
2020/12/23 05:40:13;;;;;;;28.40;15.60;;;;;;;-1.96;94.90;100378.92;1807141;79;21126;-77
2020/12/23 05:42:41;;;;;;;22.97;14.17;;;;;;;-2.00;95.28;100367.31;1812730;79;21133;-77
2020/12/23 05:45:09;;;;;;;24.67;13.37;;;;;;;-1.97;95.53;100355.63;1781236;80;21234;-76
2020/12/23 05:47:37;;;;;;;24.57;15.43;;;;;;;-2.00;95.88;100355.49;1799469;79;21114;-76
2020/12/23 05:50:09;;;;;;;25.27;14.00;;;;;;;-2.00;95.72;100352.95;1789726;79;21102;-76
2020/12/23 05:52:36;;;;;;;26.77;14.33;;;;;;;-2.00;95.86;100352.95;1751032;81;21589;-76
2020/12/23 05:55:15;;;;;;;29.03;15.73;;;;;;;-2.01;96.08;100355.45;1812010;79;21082;-77
2020/12/23 05:57:44;;;;;;;28.63;16.93;;;;;;;-2.01;96.24;100352.91;1774690;79;21579;-76
2020/12/23 06:00:12;;;;;;;29.07;16.80;;;;;;;-1.99;96.37;100348.78;1777476;79;21090;-75
2020/12/23 06:02:56;;;;;;;24.00;14.17;;;;;;;-1.96;96.10;100353.57;1810913;79;21134;-77
2020/12/23 06:05:24;;;;;;;29.87;17.17;;;;;;;-1.98;96.30;100346.70;1800126;79;21091;-77
2020/12/23 06:07:52;;;;;;;31.50;17.70;;;;;;;-1.97;96.49;100349.28;1724056;81;21134;-77
2020/12/23 06:10:20;;;;;;;28.67;15.90;;;;;;;-1.97;96.49;100344.63;1799642;79;21506;-77
2020/12/23 06:12:48;;;;;;;33.47;15.57;;;;;;;-1.97;96.53;100348.42;1728043;80;21109;-77
2020/12/23 06:15:16;;;;;;;26.47;14.20;;;;;;;-2.01;97.04;100337.70;1748052;81;21138;-77
2020/12/23 06:17:47;;;;;;;27.53;14.97;;;;;;;-2.03;97.18;100339.30;1779353;79;21276;-76
2020/12/23 06:20:16;;;;;;;32.73;18.33;;;;;;;-2.04;97.07;100343.91;1718243;82;21130;-76
2020/12/23 06:22:45;;;;;;;31.37;16.87;;;;;;;-2.02;97.21;100335.98;1757527;79;21170;-76
2020/12/23 06:25:13;;;;;;;33.90;19.70;;;;;;;-2.00;97.10;100371.11;1771003;80;21213;-77
2020/12/23 06:27:41;;;;;;;34.93;20.97;;;;;;;-2.00;97.36;100334.35;1734858;80;21154;-77
2020/12/23 06:30:09;;;;;;;31.80;16.83;;;;;;;-1.98;97.39;100324.75;1776016;80;21264;-75
2020/12/23 06:32:36;;;;;;;35.13;19.30;;;;;;;-1.97;97.27;100321.80;1776413;80;21288;-77
2020/12/23 06:35:06;;;;;;;32.67;17.77;;;;;;;-1.96;97.19;100335.83;1788898;80;21486;-77
2020/12/23 06:37:35;;;;;;;25.88;15.83;;;;;;;-1.96;97.42;100335.83;1788941;80;21138;-76
2020/12/23 06:40:12;;;;;;;30.03;17.50;;;;;;;-1.97;97.21;100337.88;1788489;80;21086;-77
2020/12/23 06:42:47;;;;;;;35.37;18.87;;;;;;;-1.98;97.51;100339.95;1769989;80;21153;-76
2020/12/23 06:45:24;;;;;;;34.67;20.53;;;;;;;-1.97;97.73;100315.05;1763922;80;21117;-76
2020/12/23 06:47:53;;;;;;;32.93;19.10;;;;;;;-1.98;97.57;100304.46;1757599;79;21211;-75
2020/12/23 06:50:29;;;;;;;30.03;16.83;;;;;;;-2.00;97.63;100295.92;1715820;80;21417;-77
2020/12/23 06:52:57;;;;;;;34.60;17.97;;;;;;;-2.01;97.86;100299.27;1790003;79;21079;-75
2020/12/23 06:55:46;;;;;;;37.97;20.57;;;;;;;-2.03;98.11;100326.62;1767085;80;21150;-77
2020/12/23 06:58:42;;;;;;;33.20;18.50;;;;;;;-2.01;98.28;100317.42;1789209;80;21570;-75
2020/12/23 07:01:16;;;;;;;35.27;17.80;;;;;;;-2.01;98.31;100298.00;1769227;80;21101;-77
2020/12/23 07:03:44;;;;;;;34.60;18.30;;;;;;;-2.00;98.42;100298.86;1766937;80;21145;-77
2020/12/23 07:06:33;;;;;;;33.10;19.03;;;;;;;-1.96;98.06;100313.01;1774141;80;21157;-77
2020/12/23 07:09:03;;;;;;;35.27;15.70;;;;;;;-1.94;98.24;100319.39;1678765;83;21347;-78
2020/12/23 07:11:34;;;;;;;32.48;17.17;;;;;;;-1.94;98.06;100320.25;1668324;83;21140;-77
2020/12/23 07:14:04;;;;;;;34.47;15.83;;;;;;;-1.94;98.09;100320.25;1692408;83;21161;-77
2020/12/23 07:16:40;;;;;;;28.35;13.08;;;;;;;-1.94;97.89;100325.73;1643246;85;21154;-77
2020/12/23 07:19:09;;;;;;;29.43;13.93;;;;;;;-1.93;97.98;100319.47;1709187;83;21139;-77
2020/12/23 07:21:37;;;;;;;37.40;18.33;;;;;;;-1.91;97.95;100330.92;1630566;86;21553;-78
2020/12/23 07:24:05;;;;;;;27.40;14.43;;;;;;;-1.90;97.99;100311.98;1678410;83;21149;-77
2020/12/23 07:26:37;;;;;;;32.47;16.57;;;;;;;-1.89;97.97;100318.78;1660260;85;21161;-77
2020/12/23 07:29:09;;;;;;;35.97;17.90;;;;;;;-1.87;97.63;100335.30;1679220;83;21165;-76
2020/12/23 07:31:41;;;;;;;38.37;19.33;;;;;;;-1.85;97.81;100325.23;1694028;83;21141;-76
2020/12/23 07:34:08;;;;;;;;;;;;;;;-1.82;97.88;100323.69;1684116;83;21165;-76
2020/12/23 07:36:36;;;;;;;35.40;17.93;;;;;;;-1.82;97.29;100309.73;1610314;85;20257;-76
2020/12/23 07:39:03;;;;;;;31.53;17.80;;;;;;;-1.79;97.40;100306.06;1676037;83;21129;-76
2020/12/23 07:41:31;;;;;;;34.70;16.33;;;;;;;-1.77;97.00;100293.42;1697241;83;21149;-75
2020/12/23 07:43:59;;;;;;;32.10;16.70;;;;;;;-1.75;96.60;100294.36;1700140;83;21149;-75
2020/12/23 07:46:27;;;;;;;28.83;16.10;;;;;;;-1.73;96.52;100286.01;1679489;83;21264;-76
2020/12/23 07:48:55;;;;;;;25.83;12.97;;;;;;;-1.73;96.13;100312.64;1696114;83;21570;-76
2020/12/23 07:51:22;;;;;;;27.10;15.97;;;;;;;-1.74;96.16;100304.95;1690708;83;21565;-76
2020/12/23 07:53:50;;;;;;;28.17;14.07;;;;;;;-1.75;96.37;100303.23;1684200;83;21166;-75
2020/12/23 07:56:18;;;;;;;31.80;17.13;;;;;;;-1.71;96.16;100321.56;1686147;83;21252;-77
2020/12/23 07:58:45;;;;;;;28.40;14.70;;;;;;;-1.69;96.10;100300.94;1650733;83;21157;-77
2020/12/23 08:01:13;;;;;;;25.33;14.13;;;;;;;-1.68;95.84;100298.86;1696996;83;21097;-73
2020/12/23 08:03:41;;;;;;;30.20;16.87;;;;;;;-1.69;95.82;100293.33;1691377;83;21555;-74
2020/12/23 08:06:10;;;;;;;34.00;16.97;;;;;;;-1.70;95.91;100289.94;1680802;83;21619;-75
2020/12/23 08:08:40;;;;;;;27.70;14.63;;;;;;;-1.66;96.04;100283.30;1679267;83;21131;-76
2020/12/23 08:11:15;;;;;;;25.80;15.00;;;;;;;-1.68;95.85;100283.63;1690398;83;21128;-77
2020/12/23 08:13:43;;;;;;;29.10;14.87;;;;;;;-1.66;96.06;100274.02;1669732;83;21283;-74
2020/12/23 08:16:13;;;;;;;30.43;15.33;;;;;;;-1.63;96.39;100273.69;1665221;85;21367;-72
2020/12/23 08:18:42;;;;;;;24.23;12.73;;;;;;;-1.60;96.71;100283.54;1625188;86;21159;-75
2020/12/23 08:21:14;;;;;;;28.00;16.90;;;;;;;-1.60;96.54;100284.81;1653301;85;21197;-75
2020/12/23 08:23:42;;;;;;;29.13;16.33;;;;;;;-1.60;97.26;100273.39;1666630;85;21561;-75
2020/12/23 08:26:11;;;;;;;29.53;15.67;;;;;;;-1.59;97.52;100266.23;1633125;87;21302;-75
2020/12/23 08:28:40;;;;;;;32.33;17.97;;;;;;;-1.59;97.83;100271.30;1628466;87;21189;-75
2020/12/23 08:31:17;;;;;;;26.13;13.60;;;;;;;-1.60;98.22;100260.71;1650287;85;21170;-75
2020/12/23 08:33:46;;;;;;;28.30;15.70;;;;;;;-1.59;98.73;100266.23;1647505;86;21332;-79
2020/12/23 08:36:15;;;;;;;27.70;14.90;;;;;;;-1.56;99.45;100261.28;1632474;86;21162;-74
2020/12/23 08:38:43;;;;;;;31.03;17.30;;;;;;;-1.53;99.38;100261.80;1655044;85;21553;-74
2020/12/23 08:41:18;;;;;;;32.83;14.40;;;;;;;-1.55;100.00;100269.34;1647572;85;21117;-74
2020/12/23 08:43:48;;;;;;;30.07;15.33;;;;;;;-1.61;100.00;100262.77;1652605;85;21210;-74
2020/12/23 08:46:23;;;;;;;25.73;15.17;;;;;;;-1.60;100.00;100258.17;1632955;85;21267;-73
2020/12/23 08:48:52;;;;;;;26.90;16.57;;;;;;;-1.57;100.00;100271.35;1648967;85;21170;-74
2020/12/23 08:51:24;;;;;;;25.93;15.20;;;;;;;-1.60;100.00;100255.64;1644415;86;21125;-73
2020/12/23 08:53:58;;;;;;;28.90;15.90;;;;;;;-1.58;100.00;100257.80;1662807;85;21162;-74
2020/12/23 08:56:31;;;;;;;26.80;15.73;;;;;;;-1.56;100.00;100252.40;1631071;86;21166;-74
2020/12/23 08:59:06;;;;;;;27.97;16.23;;;;;;;-1.56;100.00;100250.27;1620379;87;21164;-74
2020/12/23 09:01:35;;;;;;;31.30;18.20;;;;;;;-1.53;100.00;100249.12;1631754;87;21640;-74
2020/12/23 09:04:07;;;;;;;26.77;16.13;;;;;;;-1.53;100.00;100243.63;1647344;85;21177;-73
2020/12/23 09:06:41;;;;;;;27.80;15.87;;;;;;;-1.51;100.00;100244.53;1653966;85;21149;-74
2020/12/23 09:09:18;;;;;;;24.97;15.17;;;;;;;-1.54;100.00;100244.42;1656781;85;21173;-74
2020/12/23 09:11:55;;;;;;;29.23;14.17;;;;;;;-1.54;100.00;100235.54;1635806;85;21189;-75
2020/12/23 09:17:24;;;;;;;31.80;15.80;;;;;;;-1.51;100.00;100234.80;1811295;77;22317;-72
2020/12/23 09:20:05;;;;;;;29.03;16.57;;;;;;;-1.58;100.00;100236.24;1767016;80;21141;-74
2020/12/23 09:22:39;;;;;;;31.93;19.20;;;;;;;-1.59;100.00;100216.77;1761105;80;21129;-74
2020/12/23 09:28:15;;;;;;;29.60;15.87;;;;;;;-1.50;100.00;100216.25;1819887;77;22123;-76
2020/12/23 09:30:50;;;;;;;22.43;13.67;;;;;;;-1.53;100.00;100217.00;1769224;78;21495;-74
2020/12/23 09:33:20;;;;;;;31.40;18.17;;;;;;;-1.53;100.00;100209.39;1756647;81;21142;-75
2020/12/23 09:35:51;;;;;;;31.70;19.03;;;;;;;-1.50;100.00;100206.96;1752145;81;21273;-73
2020/12/23 09:38:24;;;;;;;28.53;16.83;;;;;;;-1.46;100.00;100200.32;1751547;79;21538;-75
2020/12/23 09:40:56;;;;;;;24.17;14.67;;;;;;;-1.44;100.00;100199.58;1759865;80;21593;-75
2020/12/23 09:43:28;;;;;;;29.30;17.43;;;;;;;-1.44;100.00;100198.69;1752944;80;21163;-75
2020/12/23 09:45:58;;;;;;;26.77;15.17;;;;;;;-1.39;100.00;100189.98;1756977;80;21550;-75
2020/12/23 09:48:27;;;;;;;31.17;16.03;;;;;;;-1.40;100.00;100192.94;1753690;81;21169;-76
2020/12/23 09:50:55;;;;;;;26.07;15.07;;;;;;;-1.39;100.00;100191.25;1754315;79;21122;-76
2020/12/23 09:53:24;;;;;;;21.30;12.23;;;;;;;-1.37;100.00;100179.47;1755612;80;21139;-75
2020/12/23 09:55:54;;;;;;;28.70;18.35;;;;;;;-1.36;100.00;100171.06;1754129;80;21178;-76
2020/12/23 09:58:22;;;;;;;26.33;15.30;;;;;;;-1.40;100.00;100172.63;1749926;80;21095;-75
2020/12/23 10:00:51;;;;;;;27.77;14.77;;;;;;;-1.39;100.00;100172.22;1751806;80;21134;-75
2020/12/23 10:03:21;;;;;;;26.23;14.20;;;;;;;-1.44;100.00;100167.86;1757304;80;21127;-76
2020/12/23 10:05:49;;;;;;;20.17;12.55;;;;;;;-1.43;100.00;100171.25;1751813;79;21146;-76
2020/12/23 10:08:17;;;;;;;22.43;14.03;;;;;;;-1.42;100.00;100164.95;1755894;79;21127;-77
2020/12/23 10:10:45;;;;;;;23.80;14.53;;;;;;;-1.41;100.00;100163.27;1760578;79;21184;-77
2020/12/23 10:13:14;;;;;;;23.40;13.93;;;;;;;-1.37;100.00;100156.63;1768654;80;21522;-76
2020/12/23 10:15:42;;;;;;;23.47;14.77;;;;;;;-1.36;100.00;100161.77;1758300;79;21134;-76
2020/12/23 10:18:09;;;;;;;24.97;13.23;;;;;;;-1.40;100.00;100145.13;1768895;79;21099;-76
2020/12/23 10:20:38;;;;;;;25.20;14.23;;;;;;;-1.42;100.00;100138.72;1755513;80;21110;-77
2020/12/23 10:23:06;;;;;;;18.10;10.73;;;;;;;-1.42;100.00;100143.80;1759783;80;21107;-77
2020/12/23 10:25:39;;;;;;;21.63;13.03;;;;;;;-1.43;100.00;100139.53;1759492;80;21143;-77
2020/12/23 10:28:07;;;;;;;23.87;13.90;;;;;;;-1.39;100.00;100135.42;1753131;80;21126;-77
2020/12/23 10:30:35;;;;;;;27.37;13.37;;;;;;;-1.37;100.00;100121.98;1753733;80;21138;-79
2020/12/23 10:33:05;;;;;;;25.17;14.58;;;;;;;-1.40;100.00;100130.77;1758384;79;21154;-76
2020/12/23 10:35:34;;;;;;;22.67;14.60;;;;;;;-1.43;100.00;100126.44;1757834;80;21681;-76
2020/12/23 10:38:01;;;;;;;24.37;14.33;;;;;;;-1.42;100.00;100125.62;1757515;79;21221;-77
2020/12/23 10:40:29;;;;;;;20.50;11.73;;;;;;;-1.40;100.00;100125.69;1755197;80;21114;-77
2020/12/23 10:42:57;;;;;;;21.27;12.30;;;;;;;-1.38;100.00;100127.00;1692402;82;21172;-76
2020/12/23 10:45:25;;;;;;;21.83;13.53;;;;;;;-1.35;100.00;100123.30;1750204;80;21135;-77
2020/12/23 10:47:52;;;;;;;25.87;14.13;;;;;;;-1.33;100.00;100123.81;1750508;80;21137;-77
2020/12/23 10:50:20;;;;;;;27.40;13.93;;;;;;;-1.30;100.00;100133.22;1748144;79;21122;-76
2020/12/23 10:52:47;;;;;;;24.83;15.13;;;;;;;-1.33;100.00;100107.32;1754951;79;21257;-77
2020/12/23 10:55:15;;;;;;;19.17;12.03;;;;;;;-1.33;100.00;100107.32;1759516;79;21075;-77
2020/12/23 10:57:42;;;;;;;21.70;12.70;;;;;;;-1.34;100.00;100107.25;1767813;80;21150;-76
2020/12/23 11:00:10;;;;;;;21.60;14.00;;;;;;;-1.33;100.00;100095.04;1753240;80;21118;-77
2020/12/23 11:02:38;;;;;;;22.80;13.67;;;;;;;-1.31;100.00;100097.20;1750991;80;21107;-76
2020/12/23 11:05:06;;;;;;;23.00;13.83;;;;;;;-1.31;100.00;100094.29;1750069;80;21130;-77
2020/12/23 11:07:34;;;;;;;25.93;16.03;;;;;;;-1.30;100.00;100092.61;1758854;80;21099;-76
2020/12/23 11:10:03;;;;;;;23.77;14.87;;;;;;;-1.29;100.00;100094.33;1769054;80;21079;-77
2020/12/23 11:12:31;;;;;;;21.63;14.97;;;;;;;-1.26;100.00;100098.23;1752649;79;21163;-77
2020/12/23 11:15:00;;;;;;;24.23;15.53;;;;;;;-1.24;100.00;100092.41;1755323;80;21102;-76
2020/12/23 11:17:28;;;;;;;22.87;13.33;;;;;;;-1.21;100.00;100077.28;1747651;81;21126;-76
2020/12/23 11:19:55;;;;;;;22.90;13.70;;;;;;;-1.17;100.00;100085.86;1745763;81;21110;-76
2020/12/23 11:22:23;;;;;;;22.13;13.97;;;;;;;-1.16;100.00;100074.02;1757931;80;21102;-76
2020/12/23 11:24:53;;;;;;;23.90;13.73;;;;;;;-1.15;100.00;100079.13;1745967;80;21109;-77